createdAt,value
2022-08-02T00:00:10.157Z,44.89
2022-08-02T00:02:36.774Z,44.47
2022-08-02T00:05:03.905Z,44.72
2022-08-02T00:07:30.495Z,44.89
2022-08-02T00:09:57.101Z,44.88
2022-08-02T00:12:23.721Z,44.89
2022-08-02T00:14:50.280Z,45.17
2022-08-02T00:17:16.968Z,45.16
2022-08-02T00:19:44.450Z,45.19
2022-08-02T00:22:11.261Z,45.23
2022-08-02T00:24:38.127Z,45.19
2022-08-02T00:27:09.122Z,45.35
2022-08-02T00:29:50.491Z,45.41
2022-08-02T00:32:20.629Z,45.81
2022-08-02T00:34:47.336Z,45.59
2022-08-02T00:37:14.336Z,45.82
2022-08-02T00:39:42.498Z,45.67
2022-08-02T00:42:10.263Z,45.68
2022-08-02T00:44:37.360Z,45.87
2022-08-02T00:47:04.021Z,45.99
2022-08-02T00:49:30.673Z,46.21
2022-08-02T00:51:59.851Z,46.31
2022-08-02T00:54:26.727Z,46.15
2022-08-02T00:56:53.294Z,46.29
2022-08-02T00:59:19.923Z,46.06
2022-08-02T01:01:57.385Z,46.54
2022-08-02T01:04:31.311Z,46.14
2022-08-02T01:07:12.057Z,46.40
2022-08-02T01:09:41.843Z,46.55
2022-08-02T01:12:08.995Z,46.21
2022-08-02T01:14:36.058Z,46.21
2022-08-02T01:17:17.762Z,46.12
2022-08-02T01:19:57.457Z,46.45
2022-08-02T01:23:00.617Z,46.25
2022-08-02T01:25:34.712Z,46.75
2022-08-02T01:28:26.470Z,47.07
2022-08-02T01:31:02.758Z,46.80
2022-08-02T01:33:35.334Z,46.53
2022-08-02T01:36:04.948Z,46.74
2022-08-02T01:38:39.179Z,46.77
2022-08-02T01:41:09.816Z,46.83
2022-08-02T01:43:38.214Z,46.90
2022-08-02T01:46:06.098Z,46.80
2022-08-02T01:48:34.793Z,46.75
2022-08-02T01:51:03.960Z,46.46
2022-08-02T01:53:31.863Z,46.57
2022-08-02T01:56:00.159Z,46.56
2022-08-02T01:58:31.063Z,46.55
2022-08-02T02:01:01.175Z,46.47
2022-08-02T02:03:30.838Z,46.68
2022-08-02T02:06:03.358Z,46.62
2022-08-02T02:08:34.970Z,46.80
2022-08-02T02:12:14.713Z,46.33
2022-08-02T02:13:50.399Z,46.43
2022-08-02T02:16:19.078Z,46.06
2022-08-02T02:18:48.980Z,46.68
2022-08-02T02:21:16.626Z,46.83
2022-08-02T02:23:43.652Z,46.69
2022-08-02T02:26:13.737Z,46.54
2022-08-02T02:28:41.301Z,46.34
2022-08-02T02:31:12.157Z,46.41
2022-08-02T02:33:48.967Z,46.20
2022-08-02T02:36:17.843Z,46.39
2022-08-02T02:38:46.422Z,46.53
2022-08-02T02:41:14.018Z,46.21
2022-08-02T02:43:42.176Z,46.47
2022-08-02T02:46:10.720Z,46.18
2022-08-02T02:48:37.933Z,46.02
2022-08-02T02:51:05.737Z,45.79
2022-08-02T02:54:31.070Z,46.01
2022-08-02T02:56:23.935Z,45.94
2022-08-02T02:58:51.153Z,46.01
2022-08-02T03:01:55.884Z,45.79
2022-08-02T03:04:18.807Z,46.00
2022-08-02T03:06:46.214Z,46.26
2022-08-02T03:09:13.315Z,46.61
2022-08-02T03:11:41.217Z,46.61
2022-08-02T03:14:12.189Z,46.62
2022-08-02T03:16:50.487Z,46.38
2022-08-02T03:19:18.834Z,46.37
2022-08-02T03:21:47.011Z,46.44
2022-08-02T03:24:13.911Z,46.49
2022-08-02T03:26:40.738Z,45.99
2022-08-02T03:29:10.254Z,46.39
2022-08-02T03:31:41.840Z,46.22
2022-08-02T03:34:08.752Z,46.69
2022-08-02T03:36:36.460Z,46.77
2022-08-02T03:39:04.568Z,46.82
2022-08-02T03:41:32.048Z,47.12
2022-08-02T03:43:59.431Z,47.28
2022-08-02T03:46:26.295Z,47.47
2022-08-02T03:48:54.704Z,47.77
2022-08-02T03:51:22.443Z,47.74
2022-08-02T03:53:50.685Z,47.71
2022-08-02T03:56:17.536Z,47.72
2022-08-02T03:58:48.852Z,47.99
2022-08-02T04:01:16.501Z,48.36
2022-08-02T04:03:43.439Z,48.09
2022-08-02T04:06:10.033Z,47.78
2022-08-02T04:08:38.317Z,47.63
2022-08-02T04:11:25.050Z,48.35
2022-08-02T04:13:51.928Z,48.46
2022-08-02T04:16:29.481Z,48.11
2022-08-02T04:19:00.583Z,47.75
2022-08-02T04:21:48.425Z,48.00
2022-08-02T04:24:18.661Z,47.66
2022-08-02T04:26:48.765Z,47.65
2022-08-02T04:29:17.935Z,47.66
2022-08-02T04:31:45.200Z,47.69
2022-08-02T04:34:15.001Z,47.29
2022-08-02T04:36:42.978Z,47.15
2022-08-02T04:39:09.718Z,47.34
2022-08-02T04:41:44.518Z,47.58
2022-08-02T04:44:12.568Z,47.34
2022-08-02T04:46:40.251Z,47.59
2022-08-02T04:49:07.130Z,47.76
2022-08-02T04:51:38.895Z,47.71
2022-08-02T04:54:09.645Z,47.65
2022-08-02T04:56:37.954Z,47.81
2022-08-02T04:59:05.344Z,47.93
2022-08-02T05:01:32.415Z,47.83
2022-08-02T05:03:59.358Z,47.87
2022-08-02T05:06:25.921Z,48.30
2022-08-02T05:08:53.626Z,48.42
2022-08-02T05:11:34.775Z,48.26
2022-08-02T05:14:04.325Z,48.51
2022-08-02T05:16:32.174Z,48.35
2022-08-02T05:19:02.637Z,48.61
2022-08-02T05:21:30.129Z,48.17
2022-08-02T05:23:56.801Z,48.25
2022-08-02T05:26:23.294Z,48.10
2022-08-02T05:28:49.853Z,47.92
2022-08-02T05:31:16.430Z,47.70
2022-08-02T05:33:42.988Z,48.00
2022-08-02T05:36:09.773Z,47.68
2022-08-02T05:38:37.583Z,47.87
2022-08-02T05:41:08.102Z,47.71
2022-08-02T05:43:34.597Z,47.78
2022-08-02T05:46:01.172Z,47.77
2022-08-02T05:48:31.477Z,47.66
2022-08-02T05:51:13.143Z,47.72
2022-08-02T05:53:50.459Z,47.70
2022-08-02T05:56:52.416Z,47.43
2022-08-02T05:59:47.179Z,47.80
2022-08-02T06:02:30.751Z,47.85
2022-08-02T06:05:05.179Z,47.43
2022-08-02T06:07:35.402Z,47.70
2022-08-02T06:10:05.165Z,47.06
2022-08-02T06:12:33.329Z,47.10
2022-08-02T06:15:01.510Z,46.95
2022-08-02T06:17:30.202Z,46.88
2022-08-02T06:19:58.307Z,46.94
2022-08-02T06:22:41.947Z,46.92
2022-08-02T06:25:50.163Z,46.66
2022-08-02T06:28:01.325Z,46.72
2022-08-02T06:30:28.858Z,46.62
2022-08-02T06:32:56.059Z,46.21
2022-08-02T06:35:29.543Z,46.51
2022-08-02T06:38:03.370Z,46.24
2022-08-02T06:40:53.838Z,46.19
2022-08-02T06:43:27.658Z,46.45
2022-08-02T06:45:54.212Z,46.43
2022-08-02T06:48:41.226Z,46.60
2022-08-02T06:51:07.954Z,46.40
2022-08-02T06:53:34.609Z,46.78
2022-08-02T06:56:01.186Z,46.43
2022-08-02T06:58:27.743Z,46.87
2022-08-02T07:00:54.364Z,46.34
2022-08-02T07:03:21.146Z,46.78
2022-08-02T07:05:48.620Z,46.63
2022-08-02T07:08:19.937Z,46.76
2022-08-02T07:10:47.050Z,46.77
2022-08-02T07:13:13.544Z,46.53
2022-08-02T07:15:40.116Z,46.87
2022-08-02T07:18:15.831Z,46.78
2022-08-02T07:20:42.438Z,46.75
2022-08-02T07:23:08.926Z,47.02
2022-08-02T07:26:02.605Z,46.74
2022-08-02T07:28:24.786Z,46.42
2022-08-02T07:30:51.792Z,46.55
2022-08-02T07:33:37.316Z,46.80
2022-08-02T07:36:05.530Z,46.93
2022-08-02T07:38:35.470Z,46.80
2022-08-02T07:41:04.116Z,46.87
2022-08-02T07:43:30.601Z,46.98
2022-08-02T07:48:28.091Z,46.87
2022-08-02T07:50:54.705Z,46.84
2022-08-02T07:53:50.241Z,47.00
2022-08-02T07:56:07.999Z,46.83
2022-08-02T07:58:34.560Z,46.81
2022-08-02T08:01:01.144Z,46.76
2022-08-02T08:03:27.784Z,46.78
2022-08-02T08:05:54.689Z,46.84
2022-08-02T08:08:21.269Z,46.69
2022-08-02T08:10:47.879Z,46.65
2022-08-02T08:13:15.259Z,46.79
2022-08-02T08:15:42.287Z,46.77
2022-08-02T08:18:18.164Z,46.73
2022-08-02T08:20:44.665Z,46.87
2022-08-02T08:23:11.251Z,46.92
2022-08-02T08:25:39.890Z,47.10
2022-08-02T08:28:08.016Z,47.04
2022-08-02T08:30:34.574Z,47.25
2022-08-02T08:33:01.225Z,47.13
2022-08-02T08:35:28.282Z,47.27
2022-08-02T08:37:55.193Z,47.29
2022-08-02T08:40:21.872Z,47.40
2022-08-02T08:42:48.494Z,47.52
2022-08-02T08:45:15.326Z,47.29
2022-08-02T08:47:42.905Z,47.34
2022-08-02T08:50:24.871Z,47.42
2022-08-02T08:53:02.102Z,47.38
2022-08-02T08:55:29.850Z,47.28
2022-08-02T08:57:59.232Z,47.56
2022-08-02T09:00:26.643Z,47.66
2022-08-02T09:02:53.523Z,47.57
2022-08-02T09:05:20.096Z,47.56
2022-08-02T09:07:51.385Z,48.06
2022-08-02T09:10:36.863Z,48.05
2022-08-02T09:13:38.866Z,48.03
2022-08-02T09:16:12.241Z,47.98
2022-08-02T09:18:40.590Z,48.20
2022-08-02T09:21:11.157Z,47.88
2022-08-02T09:23:40.232Z,47.68
2022-08-02T09:26:12.204Z,47.80
2022-08-02T09:28:41.833Z,47.73
2022-08-02T09:31:16.767Z,47.77
2022-08-02T09:33:45.241Z,47.57
2022-08-02T09:36:13.799Z,47.62
2022-08-02T09:38:52.037Z,47.83
2022-08-02T09:41:23.981Z,47.96
2022-08-02T09:43:57.988Z,47.79
2022-08-02T09:46:33.498Z,48.01
2022-08-02T09:49:02.912Z,47.98
2022-08-02T09:51:32.290Z,48.00
2022-08-02T09:54:08.295Z,48.17
2022-08-02T09:56:50.602Z,47.99
2022-08-02T09:59:19.033Z,48.17
2022-08-02T10:01:50.799Z,47.98
2022-08-02T10:04:34.544Z,48.21
2022-08-02T10:07:19.365Z,48.54
2022-08-02T10:09:48.876Z,47.94
2022-08-02T10:12:15.931Z,48.32
2022-08-02T10:14:43.864Z,48.24
2022-08-02T10:17:10.554Z,48.24
2022-08-02T10:20:02.077Z,48.22
2022-08-02T10:22:25.270Z,48.54
2022-08-02T10:24:52.744Z,48.57
2022-08-02T10:27:21.039Z,48.54
2022-08-02T10:29:54.989Z,48.42
2022-08-02T10:32:33.422Z,48.78
2022-08-02T10:35:19.421Z,49.07
2022-08-02T10:38:01.218Z,48.70
2022-08-02T10:40:44.540Z,49.24
2022-08-02T10:43:11.817Z,48.88
2022-08-02T10:45:39.477Z,48.77
2022-08-02T10:48:16.061Z,48.89
2022-08-02T10:50:45.598Z,49.05
2022-08-02T10:53:29.471Z,49.26
2022-08-02T10:56:01.194Z,49.12
2022-08-02T10:58:31.657Z,48.89
2022-08-02T11:01:04.525Z,48.87
2022-08-02T11:03:31.116Z,48.64
2022-08-02T11:06:24.946Z,48.75
2022-08-02T11:09:33.347Z,48.86
2022-08-02T11:12:05.491Z,48.72
2022-08-02T11:14:34.685Z,48.55
2022-08-02T11:17:03.356Z,48.72
2022-08-02T11:19:29.907Z,48.45
2022-08-02T11:22:13.583Z,48.70
2022-08-02T11:24:42.564Z,48.07
2022-08-02T11:27:16.750Z,48.11
2022-08-02T11:29:45.755Z,47.94
2022-08-02T11:32:21.266Z,47.86
2022-08-02T11:34:50.544Z,47.87
2022-08-02T11:37:37.298Z,48.28
2022-08-02T11:40:10.298Z,47.71
2022-08-02T11:42:50.565Z,47.49
2022-08-02T11:45:20.877Z,47.46
2022-08-02T11:47:51.108Z,47.47
2022-08-02T11:50:20.641Z,47.12
2022-08-02T11:52:56.797Z,47.14
2022-08-02T11:55:28.805Z,46.95
2022-08-02T11:58:05.668Z,47.03
2022-08-02T12:00:33.541Z,46.31
2022-08-02T12:03:00.321Z,46.38
2022-08-02T12:06:02.953Z,46.75
2022-08-02T12:08:13.661Z,46.56
2022-08-02T12:10:48.277Z,46.33
2022-08-02T12:13:15.220Z,46.90
2022-08-02T12:15:45.356Z,46.84
2022-08-02T12:18:36.422Z,46.49
2022-08-02T12:21:20.418Z,46.62
2022-08-02T12:23:59.891Z,47.05
2022-08-02T12:26:27.749Z,47.00
2022-08-02T12:28:59.746Z,46.70
2022-08-02T12:31:56.430Z,46.61
2022-08-02T12:34:32.086Z,46.70
2022-08-02T12:37:07.669Z,46.52
2022-08-02T12:39:41.592Z,46.79
2022-08-02T12:42:11.382Z,46.46
2022-08-02T12:44:50.574Z,46.51
2022-08-02T12:47:17.236Z,46.61
2022-08-02T12:49:43.764Z,46.72
2022-08-02T12:52:21.820Z,46.41
2022-08-02T12:54:49.129Z,46.25
2022-08-02T12:57:19.703Z,45.87
2022-08-02T12:59:52.162Z,46.06
2022-08-02T13:02:19.609Z,45.95
2022-08-02T13:04:50.056Z,45.72
2022-08-02T13:07:18.015Z,45.91
2022-08-02T13:09:45.988Z,45.98
2022-08-02T13:12:12.887Z,45.70
2022-08-02T13:14:40.792Z,45.63
2022-08-02T13:17:09.779Z,45.47
2022-08-02T13:19:37.185Z,45.71
2022-08-02T13:22:04.323Z,45.65
2022-08-02T13:24:40.054Z,45.57
2022-08-02T13:27:21.003Z,45.59
2022-08-02T13:29:48.888Z,45.67
2022-08-02T13:32:16.268Z,45.48
2022-08-02T13:34:43.405Z,45.24
2022-08-02T13:37:10.371Z,45.40
2022-08-02T13:39:37.009Z,45.45
2022-08-02T13:42:03.824Z,45.30
2022-08-02T13:44:32.367Z,45.36
2022-08-02T13:46:58.921Z,44.82
2022-08-02T13:49:50.790Z,45.21
2022-08-02T13:52:12.566Z,45.03
2022-08-02T13:54:39.400Z,44.72
2022-08-02T13:57:06.107Z,45.17
2022-08-02T13:59:56.123Z,44.85
2022-08-02T14:02:19.227Z,44.57
2022-08-02T14:04:45.863Z,44.87
2022-08-02T14:07:12.935Z,44.72
2022-08-02T14:09:40.434Z,44.73
2022-08-02T14:12:09.940Z,44.50
2022-08-02T14:14:36.838Z,45.00
2022-08-02T14:17:03.578Z,44.77
2022-08-02T14:19:30.234Z,44.70
2022-08-02T14:22:11.128Z,44.72
2022-08-02T14:24:39.603Z,44.83
2022-08-02T14:27:06.138Z,45.07
2022-08-02T14:29:32.687Z,45.08
2022-08-02T14:31:59.223Z,45.00
2022-08-02T14:34:25.821Z,44.77
2022-08-02T14:36:54.049Z,44.62
2022-08-02T14:39:21.156Z,44.77
2022-08-02T14:41:58.033Z,44.77
2022-08-02T14:44:26.931Z,44.78
2022-08-02T14:46:53.792Z,44.81
2022-08-02T14:49:26.062Z,45.10
2022-08-02T14:51:57.339Z,44.81
2022-08-02T14:54:30.750Z,45.13
2022-08-02T14:57:02.978Z,44.64
2022-08-02T14:59:30.408Z,45.02
2022-08-02T15:01:57.835Z,45.40
2022-08-02T15:04:24.852Z,45.06
2022-08-02T15:06:51.491Z,45.27
2022-08-02T15:09:18.538Z,45.52
2022-08-02T15:11:47.954Z,45.46
2022-08-02T15:14:16.245Z,45.77
2022-08-02T15:16:55.936Z,45.60
2022-08-02T15:19:23.456Z,45.63
2022-08-02T15:21:56.854Z,46.11
2022-08-02T15:24:23.640Z,45.93
2022-08-02T15:26:50.830Z,45.98
2022-08-02T15:29:18.187Z,46.28
2022-08-02T15:31:44.786Z,46.24
2022-08-02T15:34:11.847Z,46.22
2022-08-02T15:36:38.709Z,46.24
2022-08-02T15:39:05.807Z,46.33
2022-08-02T15:41:32.887Z,45.98
2022-08-02T15:44:01.703Z,46.41
2022-08-02T15:46:32.048Z,46.41
2022-08-02T15:48:59.764Z,46.16
2022-08-02T15:51:27.092Z,46.11
2022-08-02T15:53:53.722Z,46.21
2022-08-02T15:56:23.951Z,46.59
2022-08-02T15:58:54.826Z,46.20
2022-08-02T16:01:24.120Z,46.02
2022-08-02T16:03:50.778Z,45.80
2022-08-02T16:06:17.473Z,46.16
2022-08-02T16:08:53.704Z,46.00
2022-08-02T16:11:21.577Z,45.76
2022-08-02T16:13:53.131Z,46.37
2022-08-02T16:16:26.007Z,46.35
2022-08-02T16:18:52.608Z,46.44
2022-08-02T16:21:19.437Z,46.39
2022-08-02T16:24:00.490Z,46.49
2022-08-02T16:26:31.624Z,46.64
2022-08-02T16:28:59.433Z,46.33
2022-08-02T16:31:26.091Z,46.38
2022-08-02T16:33:56.357Z,46.64
2022-08-02T16:36:24.793Z,46.54
2022-08-02T16:38:52.054Z,46.80
2022-08-02T16:41:18.979Z,46.89
2022-08-02T16:43:45.650Z,46.71
2022-08-02T16:46:12.255Z,46.84
2022-08-02T16:48:39.448Z,46.40
2022-08-02T16:51:14.013Z,46.59
2022-08-02T16:53:59.711Z,46.40
2022-08-02T16:56:30.292Z,46.63
2022-08-02T16:58:59.813Z,46.61
2022-08-02T17:02:02.101Z,46.51
2022-08-02T17:04:14.436Z,46.55
2022-08-02T17:10:02.437Z,46.38
2022-08-02T17:12:16.344Z,46.89
2022-08-02T17:14:55.123Z,46.99
2022-08-02T17:17:34.260Z,46.46
2022-08-02T17:20:01.728Z,46.58
2022-08-02T17:22:28.835Z,47.03
2022-08-02T17:24:55.477Z,46.71
2022-08-02T17:27:22.102Z,46.90
2022-08-02T17:29:48.679Z,46.67
2022-08-02T17:32:15.936Z,47.00
2022-08-02T17:34:48.919Z,46.53
2022-08-02T17:37:26.411Z,46.87
2022-08-02T17:39:52.988Z,46.33
2022-08-02T17:42:24.134Z,46.62
2022-08-02T17:44:53.612Z,46.52
2022-08-02T17:47:20.594Z,46.58
2022-08-02T17:49:48.952Z,46.53
2022-08-02T17:52:50.760Z,46.54
2022-08-02T17:55:07.366Z,46.43
2022-08-02T17:57:58.142Z,46.50
2022-08-02T18:00:20.563Z,46.39
2022-08-02T18:02:52.739Z,46.31
2022-08-02T18:05:21.954Z,46.21
2022-08-02T18:07:53.071Z,46.32
2022-08-02T18:10:23.462Z,46.04
2022-08-02T18:12:53.389Z,45.93
2022-08-02T18:15:23.010Z,46.20
2022-08-02T18:17:49.597Z,45.88
2022-08-02T18:20:17.190Z,46.19
2022-08-02T18:22:44.956Z,45.98
2022-08-02T18:25:36.285Z,46.21
2022-08-02T18:27:58.385Z,46.24
2022-08-02T18:30:28.372Z,46.40
2022-08-02T18:33:58.090Z,46.38
2022-08-02T18:35:42.945Z,46.00
2022-08-02T18:38:11.543Z,46.14
2022-08-02T18:40:38.315Z,46.33
2022-08-02T18:43:07.228Z,46.32
2022-08-02T18:46:05.228Z,46.28
2022-08-02T18:48:34.536Z,46.41
2022-08-02T18:51:02.204Z,46.31
2022-08-02T18:53:41.254Z,46.17
2022-08-02T18:56:19.681Z,46.47
2022-08-02T18:58:51.075Z,46.36
2022-08-02T19:01:32.316Z,46.54
2022-08-02T19:04:01.640Z,46.20
2022-08-02T19:06:29.054Z,46.77
2022-08-02T19:09:05.857Z,46.16
2022-08-02T19:11:41.435Z,46.48
2022-08-02T19:14:24.155Z,46.40
2022-08-02T19:16:55.460Z,46.21
2022-08-02T19:19:22.222Z,46.30
2022-08-02T19:22:26.685Z,46.81
2022-08-02T19:24:36.627Z,46.53
2022-08-02T19:27:13.993Z,46.56
2022-08-02T19:29:43.509Z,46.82
2022-08-02T19:32:40.792Z,46.88
2022-08-02T19:35:19.766Z,46.43
2022-08-02T19:37:50.986Z,46.64
2022-08-02T19:40:24.161Z,46.54
2022-08-02T19:44:24.592Z,46.79
2022-08-02T19:45:50.264Z,46.72
2022-08-02T19:48:21.688Z,47.13
2022-08-02T19:50:50.402Z,46.85
2022-08-02T19:53:18.533Z,46.99
2022-08-02T19:56:00.511Z,47.11
2022-08-02T19:58:29.134Z,46.92
2022-08-02T20:00:57.638Z,47.12
2022-08-02T20:03:39.865Z,47.14
2022-08-02T20:06:10.809Z,47.41
2022-08-02T20:08:39.227Z,47.37
2022-08-02T20:11:05.894Z,47.20
2022-08-02T20:13:47.583Z,47.42
2022-08-02T20:16:20.884Z,47.28
2022-08-02T20:18:55.645Z,47.35
2022-08-02T20:21:36.245Z,47.39
2022-08-02T20:24:09.907Z,47.73
2022-08-02T20:26:38.208Z,47.82
2022-08-02T20:29:04.996Z,47.53
2022-08-02T20:31:31.576Z,47.82
2022-08-02T20:33:58.283Z,47.63
2022-08-02T20:36:26.378Z,47.60
2022-08-02T20:38:54.328Z,47.65
2022-08-02T20:41:22.119Z,47.64
2022-08-02T20:43:49.295Z,47.43
2022-08-02T20:46:15.896Z,47.81
2022-08-02T20:48:42.406Z,47.77
2022-08-02T20:51:12.210Z,47.77
2022-08-02T20:53:54.561Z,47.69
2022-08-02T20:56:21.907Z,47.67
2022-08-02T20:58:48.407Z,47.91
2022-08-02T21:01:20.960Z,47.80
2022-08-02T21:03:58.631Z,48.01
2022-08-02T21:09:13.426Z,48.01
2022-08-02T21:11:40.813Z,48.16
2022-08-02T21:14:18.690Z,48.03
2022-08-02T21:16:45.429Z,47.93
2022-08-02T21:19:12.323Z,48.00
2022-08-02T21:21:38.817Z,48.14
2022-08-02T21:24:05.729Z,48.41
2022-08-02T21:26:32.821Z,48.36
2022-08-02T21:29:03.637Z,48.41
2022-08-02T21:31:32.052Z,48.14
2022-08-02T21:34:00.862Z,48.37
2022-08-02T21:36:33.158Z,48.41
2022-08-02T21:39:08.947Z,48.46
2022-08-02T21:41:39.441Z,48.45
2022-08-02T21:44:22.051Z,48.70
2022-08-02T21:46:51.731Z,48.22
2022-08-02T21:49:20.148Z,48.14
2022-08-02T21:51:48.913Z,48.34
2022-08-02T21:54:19.901Z,48.45
2022-08-02T21:56:49.126Z,48.66
2022-08-02T21:59:17.515Z,48.24
2022-08-02T22:01:52.855Z,48.48
2022-08-02T22:04:20.701Z,48.52
2022-08-02T22:06:49.073Z,48.57
2022-08-02T22:09:43.628Z,48.40
2022-08-02T22:12:09.998Z,48.56
2022-08-02T22:14:39.408Z,48.67
2022-08-02T22:17:08.756Z,48.39
2022-08-02T22:19:35.892Z,48.57
2022-08-02T22:22:02.434Z,48.77
2022-08-02T22:24:29.833Z,48.49
2022-08-02T22:26:57.893Z,48.66
2022-08-02T22:29:24.508Z,48.95
2022-08-02T22:31:51.857Z,48.94
2022-08-02T22:34:36.641Z,48.69
2022-08-02T22:37:05.782Z,48.76
2022-08-02T22:39:34.156Z,48.90
2022-08-02T22:42:06.591Z,49.06
2022-08-02T22:44:44.245Z,48.86
2022-08-02T22:47:14.637Z,48.92
2022-08-02T22:49:51.614Z,48.82
2022-08-02T22:52:21.475Z,48.96
2022-08-02T22:54:48.337Z,48.88
2022-08-02T22:57:14.827Z,49.14
2022-08-02T22:58:49.403Z,46.51
2022-08-02T22:59:01.821Z,47.98
2022-08-02T22:59:41.751Z,48.99
2022-08-02T23:02:09.941Z,49.27
2022-08-02T23:04:37.287Z,49.16
2022-08-02T23:07:04.717Z,49.06
2022-08-02T23:09:31.262Z,49.46
2022-08-02T23:11:57.768Z,49.17
2022-08-02T23:14:24.281Z,49.24
2022-08-02T23:17:09.391Z,49.22
2022-08-02T23:19:51.017Z,49.25
2022-08-02T23:22:27.868Z,49.10
2022-08-02T23:24:57.730Z,49.24
2022-08-02T23:27:24.574Z,49.17
2022-08-02T23:29:51.135Z,49.00
2022-08-02T23:32:18.065Z,49.43
2022-08-02T23:34:44.820Z,49.32
2022-08-02T23:37:11.901Z,49.51
2022-08-02T23:39:38.493Z,49.25
2022-08-02T23:42:05.378Z,49.31
2022-08-02T23:44:31.957Z,49.48
2022-08-02T23:47:00.378Z,49.45
2022-08-02T23:49:28.358Z,49.57
2022-08-02T23:52:01.510Z,49.33
2022-08-02T23:54:28.901Z,49.47
2022-08-02T23:56:55.780Z,49.50
2022-08-02T23:59:22.706Z,49.60
